Time;durP1;ratioP1;P1;durP2;ratioP2;P2;SDS_P1;SDS_P2;PMS_P1;PMS_P2;Temp;Humidity;BMP_temperature;BMP_pressure;BME280_temperature;BME280_humidity;BME280_pressure;Samples;Min_cycle;Max_cycle;Signal;HPM_P1;HPM_P2
2023/07/31 00:01:41;;;;;;;3.90;2.60;;;;;;;17.49;81.90;99809.84;102554;278;98086;-57
2023/07/31 00:04:22;;;;;;;3.20;2.60;;;;;;;17.45;82.04;99808.04;102501;267;118051;-57
2023/07/31 00:07:14;;;;;;;4.50;2.80;;;;;;;17.38;82.30;99810.26;102569;278;106254;-58
2023/07/31 00:09:56;;;;;;;3.50;2.30;;;;;;;17.31;82.34;99816.26;102538;278;113720;-53
2023/07/31 00:12:36;;;;;;;5.10;2.60;;;;;;;17.26;82.62;99816.83;102534;278;96437;-53
2023/07/31 00:15:12;;;;;;;2.90;2.50;;;;;;;17.18;82.76;99815.86;102581;278;96358;-57
2023/07/31 00:17:47;;;;;;;6.00;2.80;;;;;;;17.11;82.79;99817.17;102550;278;117244;-57
2023/07/31 00:20:38;;;;;;;3.80;2.90;;;;;;;17.06;83.00;99815.06;102562;278;104600;-54
2023/07/31 00:23:25;;;;;;;3.50;2.50;;;;;;;17.02;82.99;99816.73;102561;278;114165;-55
2023/07/31 00:26:02;;;;;;;2.70;2.50;;;;;;;17.02;83.47;99818.15;102515;278;95893;-57
2023/07/31 00:28:42;;;;;;;5.20;2.20;;;;;;;17.07;83.73;99817.86;102619;278;97355;-58
2023/07/31 00:31:21;;;;;;;3.80;2.40;;;;;;;17.14;83.66;99819.67;102603;278;118872;-53
2023/07/31 00:34:07;;;;;;;4.40;2.10;;;;;;;17.19;83.82;99820.90;102554;278;106575;-53
2023/07/31 00:36:48;;;;;;;3.00;2.60;;;;;;;17.20;83.76;99822.23;102562;278;113408;-58
2023/07/31 00:39:22;;;;;;;2.90;2.20;;;;;;;17.22;83.86;99821.13;102524;278;96575;-58
2023/07/31 00:41:58;;;;;;;2.60;1.80;;;;;;;17.23;83.67;99821.14;102559;278;97152;-55
2023/07/31 00:44:32;;;;;;;2.40;2.00;;;;;;;17.20;83.65;99815.80;102505;278;119382;-55
2023/07/31 00:47:07;;;;;;;2.80;1.80;;;;;;;17.22;83.82;99815.45;102516;278;104063;-55
2023/07/31 00:49:47;;;;;;;2.60;2.10;;;;;;;17.27;83.67;99812.97;102513;278;115379;-56
2023/07/31 00:52:24;;;;;;;3.00;2.00;;;;;;;17.27;83.62;99818.77;102530;278;96706;-56
2023/07/31 00:55:05;;;;;;;4.80;2.00;;;;;;;17.19;83.48;99815.67;102537;278;98547;-54
2023/07/31 00:57:43;;;;;;;2.80;1.90;;;;;;;17.13;83.49;99812.29;102494;278;118162;-53
2023/07/31 01:00:19;;;;;;;4.70;2.00;;;;;;;17.10;83.37;99805.73;102588;278;103168;-57
2023/07/31 01:02:53;;;;;;;3.30;1.90;;;;;;;17.03;83.40;99806.61;102570;278;114337;-58
2023/07/31 01:05:41;;;;;;;4.00;2.20;;;;;;;16.94;83.51;99809.77;102611;278;97405;-55
2023/07/31 01:08:25;;;;;;;5.10;2.30;;;;;;;16.88;83.55;99808.46;102576;278;97207;-55
2023/07/31 01:11:07;;;;;;;3.50;2.40;;;;;;;16.86;84.02;99810.20;102654;278;118568;-57
2023/07/31 01:13:49;;;;;;;2.90;2.30;;;;;;;16.86;84.04;99814.86;102563;266;105895;-56
2023/07/31 01:16:30;;;;;;;4.80;2.20;;;;;;;16.83;83.98;99814.80;102619;278;114531;-54
2023/07/31 01:19:16;;;;;;;3.30;1.90;;;;;;;16.85;84.32;99811.89;102634;278;97406;-52
2023/07/31 01:22:32;;;;;;;3.50;2.10;;;;;;;16.86;84.12;99812.13;102608;278;98340;-56
2023/07/31 01:25:28;;;;;;;3.70;1.90;;;;;;;16.82;84.29;99808.98;102585;278;118426;-52
2023/07/31 01:28:11;;;;;;;3.50;2.30;;;;;;;16.82;84.38;99811.92;102626;278;105763;-54
2023/07/31 01:30:54;;;;;;;2.70;2.00;;;;;;;16.80;84.40;99815.60;102621;278;114505;-55
2023/07/31 01:33:31;;;;;;;3.00;1.90;;;;;;;16.77;84.55;99820.02;102619;274;96599;-54
2023/07/31 01:36:11;;;;;;;2.70;2.10;;;;;;;16.76;84.68;99819.36;102560;278;97756;-58
2023/07/31 01:38:47;;;;;;;3.30;2.00;;;;;;;16.72;84.79;99818.99;102567;278;118380;-58
2023/07/31 01:41:29;;;;;;;2.80;2.00;;;;;;;16.70;84.89;99818.57;102621;278;105648;-54
2023/07/31 01:44:08;;;;;;;2.80;2.00;;;;;;;16.67;84.89;99817.26;102608;278;114585;-53
2023/07/31 01:46:49;;;;;;;3.70;2.10;;;;;;;16.67;85.23;99818.02;102579;278;97449;-56
2023/07/31 01:49:32;;;;;;;3.20;2.20;;;;;;;16.69;85.25;99812.98;102486;278;98556;-56
2023/07/31 01:52:08;;;;;;;3.80;2.20;;;;;;;16.69;85.03;99813.32;102576;278;118350;-56
2023/07/31 01:54:45;;;;;;;3.10;2.10;;;;;;;16.63;84.97;99821.77;102706;278;105725;-55
2023/07/31 01:57:25;;;;;;;2.90;2.20;;;;;;;16.62;85.13;99831.63;102561;278;114315;-56
2023/07/31 02:00:00;;;;;;;3.10;2.10;;;;;;;16.65;85.28;99831.23;102597;278;97313;-55
2023/07/31 02:02:36;;;;;;;2.30;1.80;;;;;;;16.64;85.02;99829.11;102590;278;98329;-55
2023/07/31 02:05:11;;;;;;;4.20;2.10;;;;;;;16.59;85.02;99820.58;102630;278;117412;-54
2023/07/31 02:07:50;;;;;;;3.60;2.40;;;;;;;16.51;84.99;99828.48;102581;278;105261;-53
2023/07/31 02:10:30;;;;;;;2.80;2.20;;;;;;;16.49;85.23;99828.86;102598;278;113752;-55
2023/07/31 02:13:11;;;;;;;3.00;2.30;;;;;;;16.47;85.27;99828.46;102552;278;96749;-56
2023/07/31 02:15:50;;;;;;;3.00;2.50;;;;;;;16.43;85.27;99834.73;102576;278;97784;-53
2023/07/31 02:18:29;;;;;;;2.50;2.30;;;;;;;16.37;85.33;99842.52;102600;278;118586;-53
2023/07/31 02:21:08;;;;;;;3.30;2.50;;;;;;;16.31;85.58;99840.46;102625;278;104699;-58
2023/07/31 02:23:50;;;;;;;3.60;2.60;;;;;;;16.25;85.62;99844.66;102580;278;113260;-57
2023/07/31 02:26:30;;;;;;;3.40;2.60;;;;;;;16.23;85.80;99845.98;102611;278;95447;-57
2023/07/31 02:29:11;;;;;;;3.20;2.00;;;;;;;16.25;85.91;99842.81;102587;278;96546;-56
2023/07/31 02:31:56;;;;;;;3.00;2.60;;;;;;;16.24;86.05;99840.89;102663;278;118841;-54
2023/07/31 02:34:41;;;;;;;3.30;2.40;;;;;;;16.26;86.22;99841.58;102582;278;105370;-53
2023/07/31 02:37:18;;;;;;;5.60;2.40;;;;;;;16.32;86.54;99850.70;102606;278;113678;-53
2023/07/31 02:39:55;;;;;;;3.60;2.80;;;;;;;16.44;86.64;99861.98;102626;278;95656;-55
2023/07/31 02:42:31;;;;;;;;;;;;;;;16.48;86.68;99857.48;102620;278;96807;-55
2023/07/31 02:45:09;;;;;;;3.50;2.40;;;;;;;16.52;86.53;99850.90;102619;278;117947;-55
2023/07/31 02:47:49;;;;;;;3.70;2.60;;;;;;;16.55;86.62;99848.61;102598;278;105548;-55
2023/07/31 02:50:32;;;;;;;4.60;2.70;;;;;;;16.62;86.77;99848.30;102574;278;114623;-53
2023/07/31 02:53:09;;;;;;;3.60;2.80;;;;;;;16.67;86.54;99843.36;102560;278;96157;-53
2023/07/31 02:55:46;;;;;;;4.30;2.70;;;;;;;16.71;86.45;99842.10;102542;278;98360;-59
2023/07/31 02:58:31;;;;;;;3.50;3.10;;;;;;;16.72;86.44;99843.05;102522;278;119055;-57
2023/07/31 03:01:07;;;;;;;;;;;;;;;16.76;86.33;99845.42;102566;278;105242;-53
2023/07/31 03:03:46;;;;;;;3.50;2.80;;;;;;;16.75;86.32;99845.98;102522;278;114575;-53
2023/07/31 03:06:24;;;;;;;5.00;2.80;;;;;;;16.74;86.38;99846.10;102605;278;96877;-56
2023/07/31 03:09:03;;;;;;;3.70;3.00;;;;;;;16.76;86.47;99844.54;102603;278;97950;-54
2023/07/31 03:11:40;;;;;;;4.00;2.90;;;;;;;16.77;86.58;99843.27;102675;278;120458;-55
2023/07/31 03:14:20;;;;;;;4.20;2.70;;;;;;;16.78;86.50;99844.60;102682;278;104327;-55
2023/07/31 03:16:56;;;;;;;4.30;2.60;;;;;;;16.80;86.36;99847.73;102684;278;114708;-55
2023/07/31 03:19:38;;;;;;;4.50;2.80;;;;;;;16.80;86.25;99851.63;102656;278;95756;-56
2023/07/31 03:22:16;;;;;;;4.80;2.60;;;;;;;16.80;86.26;99849.07;102646;278;98613;-52
2023/07/31 03:24:56;;;;;;;4.60;3.00;;;;;;;16.86;86.60;99856.88;102616;278;119647;-56
2023/07/31 03:27:35;;;;;;;5.10;2.70;;;;;;;16.91;86.56;99863.23;102655;277;105551;-57
2023/07/31 03:30:14;;;;;;;7.00;2.70;;;;;;;16.94;86.56;99863.86;102624;278;113297;-55
2023/07/31 03:32:53;;;;;;;3.80;2.70;;;;;;;16.99;86.71;99866.19;102606;278;95237;-55
2023/07/31 03:35:34;;;;;;;4.20;2.80;;;;;;;17.02;86.45;99868.59;102621;278;95476;-58
2023/07/31 03:38:16;;;;;;;3.70;2.70;;;;;;;17.09;86.59;99869.41;102589;278;119134;-58
2023/07/31 03:40:54;;;;;;;4.30;3.00;;;;;;;17.17;86.47;99871.46;102582;278;106169;-57
2023/07/31 03:43:35;;;;;;;5.20;3.40;;;;;;;17.22;86.51;99877.96;102556;278;114404;-58
2023/07/31 03:46:16;;;;;;;5.80;3.30;;;;;;;17.24;86.42;99875.76;102577;278;96852;-57
2023/07/31 03:48:59;;;;;;;4.70;2.90;;;;;;;17.26;86.44;99879.06;102557;278;97425;-58
2023/07/31 03:51:36;;;;;;;5.20;3.00;;;;;;;17.27;86.42;99879.96;102538;278;120045;-55
2023/07/31 03:54:13;;;;;;;5.10;3.00;;;;;;;17.29;86.28;99882.73;102609;278;106000;-55
2023/07/31 03:56:49;;;;;;;5.20;2.60;;;;;;;17.31;86.40;99882.16;102626;278;113851;-56
2023/07/31 03:59:25;;;;;;;4.20;2.80;;;;;;;17.35;86.36;99887.16;102586;278;95509;-56
2023/07/31 04:02:01;;;;;;;4.00;2.90;;;;;;;17.39;86.12;99884.92;102632;277;96318;-53
2023/07/31 04:04:47;;;;;;;3.50;2.50;;;;;;;17.41;86.15;99886.05;102682;277;120639;-54
2023/07/31 04:07:28;;;;;;;4.60;2.60;;;;;;;17.45;86.23;99886.25;102666;278;105411;-54
2023/07/31 04:10:08;;;;;;;4.10;3.10;;;;;;;17.53;86.14;99890.27;102660;278;114788;-55
2023/07/31 04:12:45;;;;;;;5.00;2.90;;;;;;;17.58;86.06;99891.80;102665;278;97370;-55
2023/07/31 04:15:24;;;;;;;3.20;2.50;;;;;;;17.63;85.89;99896.86;102678;278;97960;-56
2023/07/31 04:18:08;;;;;;;5.10;3.20;;;;;;;17.65;85.72;99898.11;102585;278;119369;-56
2023/07/31 04:20:48;;;;;;;3.80;2.60;;;;;;;17.68;85.46;99902.41;102632;278;106270;-55
2023/07/31 04:23:28;;;;;;;4.10;2.70;;;;;;;17.70;85.34;99902.40;102575;277;114899;-54
2023/07/31 04:26:11;;;;;;;3.70;2.80;;;;;;;17.75;85.21;99904.66;102590;278;97060;-55
2023/07/31 04:28:45;;;;;;;2.70;2.40;;;;;;;17.79;85.14;99904.71;102609;278;98864;-54
2023/07/31 04:31:21;;;;;;;3.30;2.50;;;;;;;17.83;85.03;99907.80;102576;278;119925;-58
2023/07/31 04:33:56;;;;;;;3.50;2.40;;;;;;;17.88;84.96;99905.69;102536;278;105378;-57
2023/07/31 04:36:36;;;;;;;3.50;3.00;;;;;;;17.91;84.85;99906.88;102592;278;114031;-53
2023/07/31 04:39:15;;;;;;;5.00;3.70;;;;;;;17.98;84.81;99909.13;102541;278;97268;-53
2023/07/31 04:41:53;;;;;;;3.50;2.70;;;;;;;18.01;84.71;99907.33;102614;278;97681;-53
2023/07/31 04:44:30;;;;;;;3.90;2.80;;;;;;;18.06;84.62;99907.95;102650;278;119532;-53
2023/07/31 04:47:15;;;;;;;4.90;2.50;;;;;;;18.13;84.52;99916.27;102611;278;105248;-55
2023/07/31 04:49:55;;;;;;;4.50;2.50;;;;;;;18.19;84.14;99910.39;102623;278;114763;-55
2023/07/31 04:52:37;;;;;;;3.50;2.60;;;;;;;18.24;84.05;99914.84;102581;278;94354;-54
2023/07/31 04:55:19;;;;;;;4.80;2.80;;;;;;;18.23;83.85;99912.38;102674;278;98305;-53
2023/07/31 04:57:58;;;;;;;3.90;2.60;;;;;;;18.26;83.65;99911.27;102633;278;118628;-54
2023/07/31 05:00:45;;;;;;;6.00;2.80;;;;;;;18.25;83.50;99908.41;102670;278;106031;-55
2023/07/31 05:03:26;;;;;;;5.30;3.10;;;;;;;18.32;83.44;99912.36;102443;292;114243;-55
2023/07/31 05:06:07;;;;;;;6.10;2.80;;;;;;;18.33;83.49;99919.63;102600;278;96646;-58
2023/07/31 05:08:49;;;;;;;4.80;2.70;;;;;;;18.38;83.39;99920.23;102556;278;97948;-57
2023/07/31 05:11:29;;;;;;;3.90;3.10;;;;;;;18.40;83.20;99922.89;102577;266;120598;-54
2023/07/31 05:14:07;;;;;;;3.70;2.60;;;;;;;18.42;83.19;99925.00;102610;278;106122;-52
2023/07/31 05:16:46;;;;;;;5.10;2.70;;;;;;;18.42;83.21;99925.48;102596;278;114048;-54
2023/07/31 05:19:23;;;;;;;4.10;2.50;;;;;;;18.45;83.17;99925.14;102566;278;97219;-54
2023/07/31 05:22:03;;;;;;;3.10;2.50;;;;;;;18.52;83.03;99923.21;102610;278;97093;-58
2023/07/31 05:24:39;;;;;;;2.90;2.30;;;;;;;18.58;82.94;99929.96;102577;278;118775;-58
2023/07/31 05:27:20;;;;;;;4.70;2.90;;;;;;;18.66;82.97;99931.02;102583;277;104466;-55
2023/07/31 05:29:55;;;;;;;3.80;2.50;;;;;;;18.72;82.65;99928.11;102542;278;115085;-58
2023/07/31 05:32:30;;;;;;;7.70;4.50;;;;;;;18.73;82.33;99931.31;102593;266;94060;-58
2023/07/31 05:35:08;;;;;;;7.60;3.30;;;;;;;18.77;82.31;99937.34;102520;278;98398;-56
2023/07/31 05:37:45;;;;;;;5.40;2.60;;;;;;;18.79;82.10;99940.86;102603;273;117475;-56
2023/07/31 05:40:22;;;;;;;3.10;2.50;;;;;;;18.84;81.97;99942.30;102661;278;105896;-56
2023/07/31 05:42:58;;;;;;;3.40;2.80;;;;;;;18.90;81.81;99948.10;102622;278;113999;-56
2023/07/31 05:45:37;;;;;;;4.00;2.60;;;;;;;18.91;81.67;99948.78;102639;278;97408;-54
2023/07/31 05:48:13;;;;;;;3.10;2.80;;;;;;;18.92;81.56;99945.73;102719;278;98712;-54
2023/07/31 05:50:51;;;;;;;6.10;3.10;;;;;;;18.93;81.31;99947.83;102644;277;119163;-55
2023/07/31 05:53:29;;;;;;;4.60;2.50;;;;;;;18.96;81.32;99949.99;102635;278;105481;-55
2023/07/31 05:56:06;;;;;;;5.40;2.60;;;;;;;19.04;81.26;99958.75;102612;278;114302;-58
2023/07/31 05:58:46;;;;;;;5.10;2.70;;;;;;;19.13;81.07;99959.79;102537;278;96279;-58
2023/07/31 06:01:25;;;;;;;4.00;2.40;;;;;;;19.24;81.00;99961.19;102555;278;97200;-58
2023/07/31 06:04:05;;;;;;;4.30;2.90;;;;;;;19.31;80.83;99958.91;102519;278;120369;-58
2023/07/31 06:06:40;;;;;;;3.50;2.50;;;;;;;19.37;80.41;99961.73;102574;278;105431;-56
2023/07/31 06:09:21;;;;;;;6.40;2.70;;;;;;;19.39;80.17;99963.02;102545;278;115028;-55
2023/07/31 06:12:00;;;;;;;3.30;2.40;;;;;;;19.40;79.91;99973.30;102603;278;94549;-58
2023/07/31 06:14:40;;;;;;;4.80;2.50;;;;;;;19.34;79.93;99974.79;102573;278;99253;-58
2023/07/31 06:17:18;;;;;;;4.60;2.50;;;;;;;19.26;79.83;99975.94;102365;278;121832;-53
2023/07/31 06:19:58;;;;;;;3.70;2.90;;;;;;;19.18;79.80;99976.29;102669;278;105728;-54
2023/07/31 06:22:37;;;;;;;5.10;2.40;;;;;;;19.15;79.94;99977.08;102674;278;114570;-55
2023/07/31 06:25:20;;;;;;;2.30;1.90;;;;;;;19.13;79.87;99975.77;102672;278;97006;-55
2023/07/31 06:27:56;;;;;;;3.70;2.90;;;;;;;19.13;79.84;99972.99;102728;278;97294;-56
2023/07/31 06:30:36;;;;;;;5.00;2.20;;;;;;;19.10;79.78;99968.45;102666;278;119957;-55
2023/07/31 06:33:13;;;;;;;2.60;2.20;;;;;;;19.07;79.66;99972.27;102649;278;105987;-56
2023/07/31 06:35:59;;;;;;;3.80;2.80;;;;;;;19.08;79.57;99973.96;102151;278;688925;-56
2023/07/31 06:38:38;;;;;;;4.60;2.80;;;;;;;19.06;79.46;99974.44;102544;278;94265;-57
2023/07/31 06:41:26;;;;;;;5.20;2.30;;;;;;;19.04;79.31;99975.89;102647;278;98842;-53
2023/07/31 06:44:08;;;;;;;4.80;2.40;;;;;;;19.03;79.64;99977.80;102621;277;119521;-55
2023/07/31 06:46:43;;;;;;;3.70;2.40;;;;;;;19.10;79.90;99976.45;102566;278;104272;-56
2023/07/31 06:49:24;;;;;;;5.60;2.30;;;;;;;19.27;79.75;99976.45;102559;277;113778;-55
2023/07/31 06:52:01;;;;;;;5.00;2.50;;;;;;;19.50;79.88;99978.32;102570;278;95094;-57
2023/07/31 06:54:43;;;;;;;3.90;3.00;;;;;;;19.80;79.91;99977.86;102549;278;98263;-58
2023/07/31 06:57:24;;;;;;;4.20;2.20;;;;;;;20.00;79.18;99974.38;102573;278;119757;-58
2023/07/31 07:00:05;;;;;;;3.70;2.40;;;;;;;20.11;78.65;99971.06;102609;278;105738;-54
2023/07/31 07:02:44;;;;;;;5.40;2.90;;;;;;;20.28;78.83;99967.88;102580;278;115048;-53
2023/07/31 07:05:26;;;;;;;7.70;3.50;;;;;;;20.63;78.61;99971.41;102660;278;93648;-56
2023/07/31 07:08:07;;;;;;;5.20;2.70;;;;;;;21.29;77.78;99970.43;102649;278;97433;-56
2023/07/31 07:10:48;;;;;;;6.00;2.60;;;;;;;22.24;77.03;99964.47;102650;278;120268;-58
2023/07/31 07:13:31;;;;;;;5.10;2.50;;;;;;;23.55;75.35;99963.65;102619;278;104164;-57
2023/07/31 07:16:13;;;;;;;4.60;3.00;;;;;;;24.90;73.62;99961.30;102641;278;114648;-55
2023/07/31 07:18:50;;;;;;;4.10;2.30;;;;;;;25.86;71.62;99965.20;102657;278;94429;-56
2023/07/31 07:21:32;;;;;;;5.30;2.40;;;;;;;27.10;69.50;99963.65;102622;278;97391;-57
2023/07/31 07:24:07;;;;;;;3.90;2.30;;;;;;;27.79;66.56;99970.50;102609;266;120370;-58
2023/07/31 07:26:47;;;;;;;3.70;2.30;;;;;;;28.27;65.21;99968.73;102649;278;106162;-55
2023/07/31 07:29:30;;;;;;;5.50;2.70;;;;;;;28.60;62.61;99956.39;102573;277;114027;-55
2023/07/31 07:32:09;;;;;;;5.40;2.60;;;;;;;28.23;61.38;99957.85;102581;278;92358;-56
2023/07/31 07:34:50;;;;;;;4.00;2.00;;;;;;;28.21;60.93;99958.83;102588;278;98084;-54
2023/07/31 07:37:28;;;;;;;6.40;3.70;;;;;;;27.77;60.33;99953.91;102609;278;120567;-55
2023/07/31 07:40:10;;;;;;;4.70;2.50;;;;;;;28.62;60.44;99948.21;102601;278;103694;-54
2023/07/31 07:42:46;;;;;;;5.40;2.60;;;;;;;29.30;58.46;99944.34;102627;278;114336;-55
2023/07/31 07:45:21;;;;;;;4.10;2.60;;;;;;;29.32;57.25;99945.95;102656;278;94606;-54
2023/07/31 07:48:01;;;;;;;7.60;3.00;;;;;;;29.12;55.95;99949.89;102639;278;97871;-54
2023/07/31 07:50:36;;;;;;;4.20;2.40;;;;;;;28.35;55.67;99953.14;102649;278;120927;-54
2023/07/31 07:53:14;;;;;;;4.60;2.20;;;;;;;27.81;55.85;99959.25;102495;279;105400;-54
2023/07/31 07:55:49;;;;;;;4.10;2.30;;;;;;;27.74;56.11;99965.92;102615;278;114705;-58
2023/07/31 07:58:27;;;;;;;3.40;2.30;;;;;;;28.14;56.37;99958.69;102646;278;93565;-57
2023/07/31 08:01:08;;;;;;;4.30;2.20;;;;;;;28.78;56.15;99958.50;102652;278;98408;-54
2023/07/31 08:03:46;;;;;;;5.60;2.90;;;;;;;29.42;55.68;99952.79;102693;278;118060;-53
2023/07/31 08:06:26;;;;;;;7.10;2.70;;;;;;;30.11;54.75;99953.71;102668;278;105466;-54
2023/07/31 08:09:06;;;;;;;4.20;2.10;;;;;;;30.56;53.70;99954.97;102575;278;114864;-52
2023/07/31 08:11:42;;;;;;;3.90;2.00;;;;;;;31.21;52.30;99950.60;102599;278;94420;-54
2023/07/31 08:14:27;;;;;;;4.20;2.40;;;;;;;31.73;50.94;99947.11;102621;278;97678;-53
2023/07/31 08:17:04;;;;;;;5.50;2.40;;;;;;;32.43;49.38;99948.45;102631;278;119686;-58
2023/07/31 08:19:44;;;;;;;2.90;2.30;;;;;;;33.09;47.74;99941.41;102600;278;105584;-57
2023/07/31 08:22:26;;;;;;;2.50;1.70;;;;;;;33.41;46.47;99942.77;102608;277;114024;-58
2023/07/31 08:25:05;;;;;;;3.60;1.80;;;;;;;34.04;45.29;99944.57;102608;278;94481;-55
2023/07/31 08:27:45;;;;;;;3.00;1.90;;;;;;;34.52;43.86;99942.09;102628;278;97231;-55
2023/07/31 08:30:22;;;;;;;3.50;1.70;;;;;;;34.66;43.32;99944.73;102642;277;119552;-55
2023/07/31 08:33:04;;;;;;;3.40;1.80;;;;;;;34.54;42.63;99941.42;102623;278;106190;-55
2023/07/31 08:35:45;;;;;;;4.20;2.30;;;;;;;34.22;41.79;99946.38;102622;277;115137;-55
2023/07/31 08:38:21;;;;;;;4.30;1.90;;;;;;;33.94;42.10;99946.05;102652;278;94506;-60
2023/07/31 08:41:00;;;;;;;3.20;2.00;;;;;;;33.85;41.53;99942.97;102661;278;97227;-60
2023/07/31 08:43:43;;;;;;;3.40;2.70;;;;;;;34.21;40.28;99948.52;102621;278;120046;-60
2023/07/31 08:46:21;;;;;;;5.60;2.00;;;;;;;34.35;40.59;99950.30;102645;278;104798;-59
2023/07/31 08:49:05;;;;;;;3.30;2.00;;;;;;;34.17;40.59;99948.40;102650;277;113701;-60
2023/07/31 08:51:43;;;;;;;3.90;2.30;;;;;;;34.34;40.03;99946.23;102655;278;93408;-60
2023/07/31 08:54:21;;;;;;;3.40;2.00;;;;;;;34.55;40.15;99943.08;102602;278;97940;-60
2023/07/31 08:57:02;;;;;;;3.70;2.10;;;;;;;34.81;39.09;99941.68;102620;277;119612;-62
2023/07/31 08:59:39;;;;;;;3.50;1.90;;;;;;;35.27;38.78;99939.24;102607;278;105841;-60
2023/07/31 09:02:16;;;;;;;4.10;2.10;;;;;;;35.05;38.05;99942.95;102560;278;113958;-59
2023/07/31 09:04:51;;;;;;;2.90;2.20;;;;;;;34.88;38.12;99941.15;102576;278;94821;-60
2023/07/31 09:07:28;;;;;;;3.30;2.00;;;;;;;34.44;37.16;99944.98;102606;278;98246;-61
2023/07/31 09:10:09;;;;;;;4.00;1.70;;;;;;;34.14;37.78;99944.70;102613;278;119198;-59
2023/07/31 09:12:47;;;;;;;2.60;1.50;;;;;;;33.57;37.50;99939.77;102621;278;105724;-60
2023/07/31 09:15:24;;;;;;;5.70;1.70;;;;;;;32.89;38.09;99949.55;102594;278;113643;-59
2023/07/31 09:18:06;;;;;;;3.50;2.20;;;;;;;32.32;38.32;99944.88;102585;278;95098;-60
2023/07/31 09:20:48;;;;;;;3.50;1.70;;;;;;;31.91;39.67;99945.40;102580;278;98200;-61
2023/07/31 09:23:26;;;;;;;3.60;2.00;;;;;;;31.73;39.88;99946.54;102591;278;119332;-61
2023/07/31 09:26:07;;;;;;;2.90;1.70;;;;;;;31.39;39.70;99945.66;102604;278;105696;-60
2023/07/31 09:28:43;;;;;;;5.20;1.90;;;;;;;30.98;39.47;99943.39;102594;278;114022;-60
2023/07/31 09:31:35;;;;;;;2.60;1.80;;;;;;;30.62;40.04;99941.45;102644;278;94581;-58
2023/07/31 09:34:15;;;;;;;4.70;1.70;;;;;;;30.37;40.53;99939.58;102585;278;97654;-59
2023/07/31 09:36:55;;;;;;;2.50;1.40;;;;;;;30.15;40.61;99941.37;102607;278;118609;-62
2023/07/31 09:39:31;;;;;;;3.80;1.70;;;;;;;30.04;40.97;99944.98;102634;266;105128;-56
2023/07/31 09:42:08;;;;;;;2.60;1.60;;;;;;;30.04;41.37;99949.29;102550;278;113732;-56
2023/07/31 09:44:52;;;;;;;4.00;1.50;;;;;;;29.68;41.32;99949.13;102595;278;94398;-55
2023/07/31 09:47:30;;;;;;;4.20;1.70;;;;;;;29.07;41.32;99949.64;102592;277;96787;-54
2023/07/31 09:50:13;;;;;;;5.90;1.40;;;;;;;29.00;41.90;99952.69;102627;278;119632;-54
2023/07/31 09:52:53;;;;;;;3.10;1.30;;;;;;;28.93;41.99;99950.50;102633;266;104869;-53
2023/07/31 09:55:31;;;;;;;3.10;1.50;;;;;;;28.82;41.72;99951.40;102654;278;111895;-54
2023/07/31 09:58:10;;;;;;;3.60;1.50;;;;;;;28.74;41.76;99950.18;102631;278;93287;-55
2023/07/31 10:00:45;;;;;;;4.10;1.50;;;;;;;28.72;41.72;99951.35;102446;279;97450;-54
2023/07/31 10:03:22;;;;;;;3.20;1.50;;;;;;;28.68;41.64;99951.90;102585;278;119083;-54
2023/07/31 10:06:06;;;;;;;2.50;1.20;;;;;;;28.69;41.79;99950.04;102614;278;104404;-54
2023/07/31 10:08:48;;;;;;;4.00;1.30;;;;;;;28.69;41.89;99951.71;102639;278;114698;-52
2023/07/31 10:11:28;;;;;;;2.30;1.70;;;;;;;28.75;41.97;99949.38;102637;278;94226;-56
2023/07/31 10:14:06;;;;;;;6.00;1.60;;;;;;;28.49;40.74;99946.27;102639;278;95865;-56
2023/07/31 10:16:46;;;;;;;4.90;1.70;;;;;;;28.39;41.35;99953.05;102640;278;118906;-59
2023/07/31 10:19:25;;;;;;;4.70;1.60;;;;;;;28.48;41.48;99951.96;102611;278;106541;-59
2023/07/31 10:22:09;;;;;;;2.60;1.80;;;;;;;28.42;40.63;99951.92;102613;278;114986;-55
2023/07/31 10:24:47;;;;;;;3.20;1.30;;;;;;;28.38;40.94;99951.23;102732;278;94355;-54
2023/07/31 10:27:27;;;;;;;2.50;1.20;;;;;;;28.24;40.96;99951.10;102654;278;96635;-57
2023/07/31 10:30:05;;;;;;;3.40;1.80;;;;;;;28.23;41.11;99945.30;102679;278;119485;-54
2023/07/31 10:32:44;;;;;;;2.20;1.40;;;;;;;28.13;40.92;99941.27;102608;278;105081;-54
2023/07/31 10:35:23;;;;;;;3.00;1.50;;;;;;;28.17;40.89;99950.23;102656;278;113192;-54
2023/07/31 10:38:12;;;;;;;4.00;1.60;;;;;;;28.24;40.70;99948.61;102656;278;94840;-55
2023/07/31 10:40:53;;;;;;;2.60;1.30;;;;;;;28.19;40.79;99947.52;102633;278;97193;-54
2023/07/31 10:43:34;;;;;;;2.70;1.20;;;;;;;28.20;41.01;99948.48;102627;277;118990;-54
2023/07/31 10:46:15;;;;;;;2.20;1.30;;;;;;;28.15;40.78;99944.94;102656;278;104631;-57
2023/07/31 10:49:01;;;;;;;4.10;1.40;;;;;;;28.19;41.22;99944.15;102570;278;115000;-55
2023/07/31 10:51:44;;;;;;;3.00;1.60;;;;;;;28.28;41.17;99943.83;102658;278;95021;-57
2023/07/31 10:54:21;;;;;;;7.10;1.80;;;;;;;28.16;41.14;99943.36;102684;278;97780;-58
2023/07/31 10:56:58;;;;;;;4.20;1.30;;;;;;;28.10;41.09;99942.63;102692;278;118070;-54
2023/07/31 10:59:38;;;;;;;2.20;1.10;;;;;;;28.08;41.35;99945.84;102681;278;104197;-55
2023/07/31 11:02:30;;;;;;;2.10;1.10;;;;;;;28.17;41.40;99940.78;102588;278;114401;-58
2023/07/31 11:05:14;;;;;;;5.40;1.40;;;;;;;28.38;41.65;99941.13;102626;278;94819;-59
2023/07/31 11:08:00;;;;;;;2.70;1.50;;;;;;;28.39;41.46;99941.05;102610;278;98066;-59
2023/07/31 11:10:38;;;;;;;3.40;1.30;;;;;;;28.15;41.17;99943.73;102647;278;120015;-53
2023/07/31 11:13:19;;;;;;;3.00;1.20;;;;;;;28.10;41.29;99940.02;102606;278;105502;-55
2023/07/31 11:15:56;;;;;;;2.90;1.60;;;;;;;27.99;40.90;99938.94;102613;278;114941;-54
2023/07/31 11:18:31;;;;;;;2.80;1.40;;;;;;;27.86;40.92;99941.02;102610;278;93633;-54
2023/07/31 11:21:08;;;;;;;2.50;1.20;;;;;;;27.72;40.67;99947.97;102675;278;97910;-55
2023/07/31 11:23:49;;;;;;;3.90;1.70;;;;;;;27.55;40.71;99944.76;102633;278;119810;-56
2023/07/31 11:26:28;;;;;;;3.70;1.20;;;;;;;27.61;40.77;99946.96;102712;278;104697;-54
2023/07/31 11:29:14;;;;;;;2.80;1.30;;;;;;;27.46;40.75;99944.73;102700;278;115241;-54
2023/07/31 11:31:49;;;;;;;3.00;1.20;;;;;;;27.43;40.91;99941.20;102674;278;93518;-54
2023/07/31 11:34:34;;;;;;;3.00;1.10;;;;;;;27.44;41.30;99940.27;102680;278;95733;-54
2023/07/31 11:37:17;;;;;;;2.00;1.20;;;;;;;27.57;41.59;99938.83;102611;278;120224;-56
2023/07/31 11:40:07;;;;;;;3.00;1.50;;;;;;;27.68;41.41;99937.78;102650;278;104909;-56
2023/07/31 11:42:50;;;;;;;2.70;1.20;;;;;;;27.68;40.90;99939.45;102610;278;114460;-55
2023/07/31 11:45:28;;;;;;;3.00;1.10;;;;;;;27.67;41.38;99940.20;102401;278;94358;-58
2023/07/31 11:48:06;;;;;;;3.70;1.40;;;;;;;27.62;41.74;99940.05;102654;278;97721;-57
2023/07/31 11:50:42;;;;;;;2.80;1.90;;;;;;;27.55;41.57;99938.02;102656;278;120079;-55
2023/07/31 11:53:23;;;;;;;4.60;1.80;;;;;;;27.52;41.47;99933.98;102654;278;105341;-55
2023/07/31 11:56:04;;;;;;;1.70;1.30;;;;;;;27.44;41.48;99933.44;102626;278;113755;-55
2023/07/31 11:58:43;;;;;;;2.50;1.40;;;;;;;27.44;41.66;99927.40;102490;279;94401;-55
2023/07/31 12:01:23;;;;;;;3.20;1.30;;;;;;;27.41;41.81;99925.64;102640;278;97813;-57
2023/07/31 12:04:06;;;;;;;2.80;1.50;;;;;;;27.27;41.74;99926.59;102658;278;119575;-57
2023/07/31 12:06:52;;;;;;;3.50;1.60;;;;;;;27.26;41.76;99925.12;102642;278;106254;-57
2023/07/31 12:09:34;;;;;;;1.80;0.90;;;;;;;27.18;41.58;99924.46;102587;278;114004;-55
2023/07/31 12:12:11;;;;;;;2.00;1.10;;;;;;;27.00;41.58;99920.27;102585;278;92810;-53
2023/07/31 12:14:50;;;;;;;2.40;1.10;;;;;;;26.95;42.07;99917.52;102637;278;98529;-55
2023/07/31 12:17:33;;;;;;;2.80;1.00;;;;;;;26.92;41.80;99918.30;102588;278;119169;-57
2023/07/31 12:20:13;;;;;;;2.40;1.40;;;;;;;26.76;41.69;99919.59;102617;278;105461;-55
2023/07/31 12:22:53;;;;;;;2.40;1.20;;;;;;;26.65;42.08;99917.20;102619;270;113184;-54
2023/07/31 12:25:35;;;;;;;2.40;1.30;;;;;;;26.50;42.32;99914.78;102641;278;94896;-57
2023/07/31 12:28:12;;;;;;;3.20;1.30;;;;;;;26.39;42.52;99915.10;102652;278;97766;-58